Time;durP1;ratioP1;P1;durP2;ratioP2;P2;SDS_P1;SDS_P2;PMS_P1;PMS_P2;Temp;Humidity;BMP_temperature;BMP_pressure;BME280_temperature;BME280_humidity;BME280_pressure;Samples;Min_cycle;Max_cycle;Signal;HPM_P1;HPM_P2
2021/12/24 00:02:23;;;;;;;23.73;11.10;;;;;;;-9.40;61.17;101365.70;1735526;82;21235;-51
2021/12/24 00:05:29;;;;;;;21.23;11.03;;;;;;;-9.42;61.11;101367.05;1735434;82;21251;-50
2021/12/24 00:08:35;;;;;;;21.57;10.13;;;;;;;-9.41;61.15;101359.98;1735262;82;21216;-51
2021/12/24 00:11:40;;;;;;;21.15;10.28;;;;;;;-9.43;61.21;101364.43;1735272;82;21235;-53
2021/12/24 00:14:51;;;;;;;16.82;10.08;;;;;;;-9.44;61.18;101352.09;1735299;82;21182;-51
2021/12/24 00:18:03;;;;;;;16.73;10.00;;;;;;;-9.46;61.09;101349.47;1735158;82;21305;-52
2021/12/24 00:37:43;;;;;;;23.00;11.43;;;;;;;-10.03;61.04;101316.48;1701151;84;20212;-51
2021/12/24 00:40:50;;;;;;;23.65;11.12;;;;;;;-10.12;61.21;101313.59;1701380;84;21335;-50
2021/12/24 00:43:56;;;;;;;23.52;11.57;;;;;;;-10.17;61.55;101313.23;1718784;82;21839;-53
2021/12/24 00:47:04;;;;;;;21.73;11.65;;;;;;;-10.16;61.71;101308.39;1739308;82;21389;-51
2021/12/24 00:50:14;;;;;;;22.32;11.53;;;;;;;-10.22;61.69;101308.02;1737214;81;21168;-50
2021/12/24 00:56:41;;;;;;;25.75;12.20;;;;;;;-10.39;62.00;101299.48;1736986;81;21227;-52
2021/12/24 00:59:50;;;;;;;23.12;11.80;;;;;;;-10.44;62.13;101293.81;1737090;81;21207;-50
2021/12/24 01:02:59;;;;;;;22.58;11.65;;;;;;;-10.47;62.30;101289.89;1737202;82;21387;-50
2021/12/24 01:06:07;;;;;;;26.02;11.28;;;;;;;-10.50;62.42;101277.61;1736888;81;21271;-51
2021/12/24 01:09:11;;;;;;;22.77;12.20;;;;;;;-10.47;62.71;101275.34;1737003;82;21176;-52
2021/12/24 01:12:17;;;;;;;28.25;13.03;;;;;;;-10.39;62.92;101280.08;1737023;82;21199;-52
2021/12/24 01:15:23;;;;;;;34.20;14.50;;;;;;;-10.31;62.79;101267.59;1737258;81;21267;-51
2021/12/24 01:22:13;;;;;;;28.23;12.60;;;;;;;-10.33;62.65;101260.13;1737195;81;21204;-51
2021/12/24 01:25:07;;;;;;;17.80;10.93;;;;;;;-10.30;62.59;101259.63;1737161;81;21224;-51
2021/12/24 01:38:23;;;;;;;26.20;12.20;;;;;;;-10.49;62.93;101244.95;1772053;80;21205;-51
2021/12/24 01:44:49;;;;;;;17.20;10.68;;;;;;;-10.48;63.39;101228.17;1770825;79;21734;-51
2021/12/24 01:47:56;;;;;;;19.70;11.33;;;;;;;-10.42;63.47;101215.31;1770833;81;21165;-53
2021/12/24 01:51:01;;;;;;;20.20;10.95;;;;;;;-10.39;63.53;101212.17;1771330;79;21236;-52
2021/12/24 01:54:11;;;;;;;19.48;10.88;;;;;;;-10.39;63.53;101196.73;1770819;81;21240;-52
2021/12/24 01:57:15;;;;;;;21.27;11.28;;;;;;;-10.44;63.75;101195.94;1771099;81;21347;-50
2021/12/24 02:00:25;;;;;;;22.67;11.90;;;;;;;-10.40;63.64;101198.97;1770849;79;21240;-52
2021/12/24 02:03:31;;;;;;;25.05;12.00;;;;;;;-10.38;63.61;101186.56;1763562;81;21237;-52
2021/12/24 02:06:36;;;;;;;21.82;11.12;;;;;;;-10.38;63.64;101174.66;1770972;79;21233;-52
2021/12/24 02:09:41;;;;;;;22.35;11.60;;;;;;;-10.42;63.89;101168.58;1771455;79;21181;-50
2021/12/24 02:12:48;;;;;;;23.62;12.37;;;;;;;-10.44;63.66;101157.14;1770923;80;21292;-51
2021/12/24 02:29:20;;;;;;;26.02;13.43;;;;;;;-10.30;63.95;101122.48;1770909;81;21371;-51
2021/12/24 02:32:26;;;;;;;22.35;11.63;;;;;;;-10.30;63.95;101122.48;1771204;80;21233;-53
2021/12/24 02:35:31;;;;;;;25.08;12.55;;;;;;;-10.38;63.79;101119.11;1771045;79;21212;-51
2021/12/24 02:38:38;;;;;;;24.43;13.28;;;;;;;-10.47;63.62;101121.93;1770960;80;21351;-53
2021/12/24 02:41:45;;;;;;;22.98;12.65;;;;;;;-10.47;63.62;101121.93;1771106;79;21375;-52
2021/12/24 02:44:55;;;;;;;21.68;12.25;;;;;;;-10.52;63.96;101114.52;1770688;79;21335;-51
2021/12/24 02:54:38;;;;;;;22.10;11.95;;;;;;;-10.80;64.07;101110.62;1771006;79;21709;-52
2021/12/24 02:57:43;;;;;;;20.92;11.03;;;;;;;-10.80;64.07;101110.62;1771871;80;21331;-52
2021/12/24 03:00:48;;;;;;;23.20;11.90;;;;;;;-10.96;64.14;101116.17;1771129;79;21197;-51
2021/12/24 03:03:55;;;;;;;20.80;12.28;;;;;;;-11.10;64.36;101109.36;1771150;80;21332;-53
2021/12/24 03:07:01;;;;;;;27.77;12.13;;;;;;;-11.14;64.65;101095.31;1771001;81;21205;-51
2021/12/24 03:10:15;;;;;;;29.00;13.35;;;;;;;-11.33;65.00;101091.64;1770899;79;21362;-51
2021/12/24 03:13:20;;;;;;;22.20;12.53;;;;;;;-11.33;65.00;101091.64;1771027;80;21287;-51
2021/12/24 03:16:28;;;;;;;23.27;11.65;;;;;;;-11.44;65.05;101090.49;1771247;79;21891;-50
2021/12/24 03:19:34;;;;;;;21.23;13.05;;;;;;;-11.47;65.40;101078.66;1771728;80;21812;-53
2021/12/24 03:22:50;;;;;;;19.20;11.78;;;;;;;-11.47;65.56;101087.90;1770961;81;21816;-52
2021/12/24 03:25:52;;;;;;;19.95;11.25;;;;;;;-11.40;66.00;101078.13;1771003;79;21224;-50
2021/12/24 03:28:58;;;;;;;26.25;11.70;;;;;;;-11.40;66.00;101078.13;1771000;80;21795;-51
2021/12/24 03:32:05;;;;;;;20.02;10.80;;;;;;;-11.32;66.05;101081.52;1770898;79;21188;-50
2021/12/24 03:35:12;;;;;;;23.60;12.15;;;;;;;-11.25;66.12;101073.47;1770842;79;21192;-53
2021/12/24 03:38:19;;;;;;;21.75;10.28;;;;;;;-11.23;66.03;101060.23;1771856;80;21414;-51
2021/12/24 03:41:24;;;;;;;24.15;12.23;;;;;;;-11.20;66.15;101059.75;1763359;80;21393;-50
2021/12/24 03:44:39;;;;;;;20.70;12.10;;;;;;;-11.12;66.22;101064.46;1771400;80;21648;-51
2021/12/24 03:47:40;;;;;;;26.00;12.47;;;;;;;-11.05;66.10;101050.23;1770908;81;21231;-52
2021/12/24 03:51:03;;;;;;;26.65;12.63;;;;;;;-10.98;66.05;101045.28;1771478;79;21267;-51
2021/12/24 03:57:17;;;;;;;18.32;11.38;;;;;;;-10.88;65.89;101039.82;1771056;81;21883;-50
2021/12/24 04:00:34;;;;;;;27.02;12.25;;;;;;;-10.96;65.87;101030.27;1752996;79;21197;-52
2021/12/24 04:03:49;;;;;;;27.30;11.50;;;;;;;-10.96;65.92;101031.59;1771206;80;21299;-52
2021/12/24 04:07:15;;;;;;;21.77;12.60;;;;;;;-11.00;65.75;101019.31;1739621;82;21184;-52
2021/12/24 04:10:42;;;;;;;20.30;11.70;;;;;;;-11.09;65.69;101029.17;1739599;82;21204;-51
2021/12/24 04:13:55;;;;;;;24.37;11.55;;;;;;;-11.13;65.79;101022.21;1770965;81;21174;-51
2021/12/24 04:17:02;;;;;;;25.80;12.60;;;;;;;-11.21;65.77;101015.71;1771848;80;21204;-51
2021/12/24 04:26:46;;;;;;;23.90;11.90;;;;;;;-11.37;66.38;101010.25;1770964;79;21215;-51
2021/12/24 04:30:00;;;;;;;25.12;12.50;;;;;;;-11.36;66.67;101003.21;1771108;79;21689;-53
2021/12/24 04:33:09;;;;;;;19.67;11.63;;;;;;;-11.37;66.93;100989.13;1770991;80;21267;-52
2021/12/24 04:36:42;;;;;;;28.30;13.15;;;;;;;-11.41;67.09;100999.33;1771031;79;21347;-53
2021/12/24 04:39:48;;;;;;;21.00;12.05;;;;;;;-11.45;67.29;100991.05;1770910;81;21837;-52
2021/12/24 05:03:05;;;;;;;23.12;10.55;;;;;;;-11.24;67.10;100984.06;1772000;80;21216;-52
2021/12/24 05:06:12;;;;;;;18.82;10.18;;;;;;;-11.22;67.05;100974.79;1771032;79;21382;-51
2021/12/24 05:09:19;;;;;;;16.85;9.38;;;;;;;-11.18;66.99;100964.14;1770773;80;21209;-50
2021/12/24 05:12:22;;;;;;;17.75;10.18;;;;;;;-11.15;66.94;100969.84;1770689;80;21188;-50
2021/12/24 05:15:31;;;;;;;18.27;10.45;;;;;;;-11.13;66.91;100970.22;1770338;79;21216;-51
2021/12/24 05:22:09;;;;;;;19.10;10.40;;;;;;;-10.93;66.84;100954.01;1749919;80;21347;-51
2021/12/24 05:25:13;;;;;;;15.25;8.10;;;;;;;-10.93;66.84;100954.01;1763489;79;21193;-52
2021/12/24 05:28:23;;;;;;;21.42;10.40;;;;;;;-10.92;66.74;100945.64;1770591;80;21725;-50
2021/12/24 05:31:28;;;;;;;17.77;10.53;;;;;;;-10.97;66.58;100947.02;1747354;81;21209;-50
2021/12/24 05:34:35;;;;;;;21.52;9.75;;;;;;;-10.95;66.66;100939.50;1770652;79;21318;-51
2021/12/24 05:37:41;;;;;;;16.70;10.35;;;;;;;-10.92;66.65;100943.00;1770593;80;21390;-52
2021/12/24 05:40:49;;;;;;;21.02;10.85;;;;;;;-10.92;66.54;100934.59;1770135;79;21583;-50
2021/12/24 05:43:58;;;;;;;23.52;12.07;;;;;;;-10.80;66.61;100925.56;1770433;80;21304;-51
2021/12/24 05:47:07;;;;;;;22.25;11.70;;;;;;;-10.80;66.61;100925.56;1769004;80;21222;-51
2021/12/24 05:50:16;;;;;;;23.85;12.13;;;;;;;-10.73;66.51;100932.48;1767440;80;21185;-51
2021/12/24 05:53:27;;;;;;;23.35;10.95;;;;;;;-10.69;66.54;100926.22;1724756;80;21173;-52
2021/12/24 05:56:38;;;;;;;22.15;11.12;;;;;;;-10.61;66.38;100926.94;1762348;79;21793;-52
2021/12/24 05:59:43;;;;;;;20.70;11.28;;;;;;;-10.54;66.40;100902.13;1759540;79;21166;-51
2021/12/24 06:02:48;;;;;;;19.60;9.68;;;;;;;-10.48;66.39;100898.02;1758324;80;21291;-51
2021/12/24 06:05:54;;;;;;;23.12;10.10;;;;;;;-10.34;66.52;100902.55;1766082;80;21585;-52
2021/12/24 06:09:01;;;;;;;20.95;10.53;;;;;;;-10.25;66.42;100897.05;1766354;80;22049;-51
2021/12/24 06:12:10;;;;;;;20.40;11.33;;;;;;;-10.16;66.45;100894.22;1763058;81;21192;-51
2021/12/24 06:15:20;;;;;;;24.57;11.43;;;;;;;-10.05;66.45;100883.74;1764031;80;21577;-52
2021/12/24 06:18:26;;;;;;;25.97;11.80;;;;;;;-9.93;66.39;100877.30;1763445;80;21243;-52
2021/12/24 06:21:33;;;;;;;22.32;11.50;;;;;;;-9.85;66.36;100870.05;1764298;79;21244;-53
2021/12/24 06:24:39;;;;;;;22.95;11.15;;;;;;;-9.73;66.38;100873.70;1767423;79;21247;-52
2021/12/24 06:27:45;;;;;;;23.02;12.00;;;;;;;-9.61;66.42;100866.79;1768442;81;21746;-52
2021/12/24 06:30:50;;;;;;;25.32;12.65;;;;;;;-9.51;66.40;100870.92;1769216;79;21212;-52
2021/12/24 06:33:56;;;;;;;22.50;11.35;;;;;;;-9.36;66.27;100866.56;1767053;80;21200;-52
2021/12/24 06:37:04;;;;;;;26.80;12.47;;;;;;;-9.34;66.03;100858.13;1768054;80;21836;-51
2021/12/24 06:40:11;;;;;;;26.52;12.33;;;;;;;-9.28;65.98;100842.50;1768081;81;21181;-52
2021/12/24 06:43:21;;;;;;;27.10;12.07;;;;;;;-9.21;65.88;100848.06;1768963;80;21293;-52
2021/12/24 06:46:26;;;;;;;31.57;14.83;;;;;;;-9.27;65.58;100839.80;1739649;81;21259;-52
2021/12/24 06:49:31;;;;;;;34.67;16.27;;;;;;;-9.32;65.72;100833.75;1764147;81;21197;-52
2021/12/24 06:52:36;;;;;;;30.50;14.50;;;;;;;-9.25;66.00;100827.39;1768112;79;21963;-52
2021/12/24 06:55:42;;;;;;;28.32;12.80;;;;;;;-9.06;66.22;100816.69;1769890;81;21216;-52
2021/12/24 06:58:49;;;;;;;29.23;14.25;;;;;;;-8.86;66.20;100813.00;1760066;81;21227;-52
2021/12/24 07:01:59;;;;;;;31.42;14.75;;;;;;;-8.80;65.81;100819.44;1767629;80;21223;-52
2021/12/24 07:05:04;;;;;;;29.37;13.80;;;;;;;-8.73;65.74;100811.73;1768313;79;21745;-52
2021/12/24 07:08:10;;;;;;;29.80;15.20;;;;;;;-8.70;65.74;100806.33;1769421;80;21173;-53
2021/12/24 07:11:16;;;;;;;27.07;13.88;;;;;;;-8.70;65.83;100814.29;1757208;81;21217;-54
2021/12/24 07:14:23;;;;;;;30.27;14.68;;;;;;;-8.74;65.86;100799.84;1769775;80;21335;-53
2021/12/24 07:17:30;;;;;;;32.35;15.23;;;;;;;-8.75;66.09;100792.81;1769485;80;21760;-53
2021/12/24 07:20:36;;;;;;;27.45;14.60;;;;;;;-8.59;66.40;100792.77;1741049;81;21271;-54
2021/12/24 07:23:43;;;;;;;28.23;14.20;;;;;;;-8.40;66.58;100780.63;1768011;81;21162;-53
2021/12/24 07:26:54;;;;;;;31.80;15.65;;;;;;;-8.23;66.53;100796.44;1767943;78;21375;-53
2021/12/24 07:30:09;;;;;;;37.60;15.40;;;;;;;-8.17;66.34;100757.73;1740434;81;21213;-54
2021/12/24 07:33:18;;;;;;;27.67;14.25;;;;;;;-8.08;66.42;100754.77;1742962;81;21355;-58
2021/12/24 07:36:26;;;;;;;30.57;15.32;;;;;;;-7.93;66.41;100766.66;1768033;79;21886;-58
2021/12/24 07:39:32;;;;;;;34.40;15.88;;;;;;;-7.84;66.27;100747.30;1760140;81;21189;-57
2021/12/24 07:42:38;;;;;;;30.50;15.75;;;;;;;-7.81;66.36;100735.23;1728634;83;21574;-57
2021/12/24 07:45:45;;;;;;;37.05;16.90;;;;;;;-7.68;66.41;100735.67;1738914;81;21308;-58
2021/12/24 07:49:01;;;;;;;29.65;14.70;;;;;;;-7.54;66.37;100727.20;1740679;81;21204;-57
2021/12/24 07:52:09;;;;;;;31.35;15.35;;;;;;;-7.47;66.20;100740.69;1763999;81;21189;-57
2021/12/24 07:55:18;;;;;;;37.80;16.77;;;;;;;-7.42;66.11;100742.24;1768272;79;21217;-58
2021/12/24 07:58:25;;;;;;;41.37;18.70;;;;;;;-7.38;66.21;100723.95;1761871;81;21173;-57
2021/12/24 08:01:33;;;;;;;41.40;20.15;;;;;;;-7.27;66.33;100732.40;1768948;79;21262;-58
2021/12/24 08:04:39;;;;;;;52.05;25.57;;;;;;;-7.26;66.22;100713.33;1737413;81;21227;-57
2021/12/24 08:07:46;;;;;;;51.37;24.93;;;;;;;-7.25;66.50;100709.28;1737758;82;21193;-58
2021/12/24 08:10:52;;;;;;;46.37;22.42;;;;;;;-7.12;66.76;100707.03;1737675;81;21228;-57
2021/12/24 08:14:01;;;;;;;45.30;21.85;;;;;;;-7.07;66.65;100699.27;1763985;81;21190;-57
2021/12/24 08:17:08;;;;;;;35.70;18.70;;;;;;;-7.11;66.67;100684.81;1767618;80;21193;-58
2021/12/24 08:20:14;;;;;;;37.95;18.50;;;;;;;-7.15;66.93;100673.91;1770906;80;21264;-57
2021/12/24 08:23:21;;;;;;;32.00;15.95;;;;;;;-7.22;67.17;100659.09;1772739;80;21314;-58
2021/12/24 08:26:29;;;;;;;35.08;16.30;;;;;;;-7.24;67.50;100655.62;1773638;80;21752;-58
2021/12/24 08:29:39;;;;;;;27.82;14.70;;;;;;;-7.23;67.86;100634.30;1768897;81;21742;-57
2021/12/24 08:32:47;;;;;;;29.45;15.98;;;;;;;-7.17;67.95;100634.53;1682042;82;21357;-57
2021/12/24 08:35:56;;;;;;;27.77;15.48;;;;;;;-7.08;68.18;100626.19;1734456;82;21827;-58
2021/12/24 08:39:02;;;;;;;27.27;14.63;;;;;;;-6.98;68.28;100623.58;1725375;81;21927;-60
2021/12/24 08:42:09;;;;;;;29.07;15.65;;;;;;;-6.98;68.33;100616.93;1725272;83;21821;-59
2021/12/24 08:45:17;;;;;;;30.48;16.05;;;;;;;-6.98;68.71;100611.16;1725389;83;21236;-58
2021/12/24 08:48:23;;;;;;;30.72;16.32;;;;;;;-6.95;68.61;100620.34;1708715;83;21251;-57
2021/12/24 08:51:30;;;;;;;28.52;15.20;;;;;;;-7.03;68.78;100598.95;1703858;83;21241;-57
2021/12/24 08:54:37;;;;;;;32.40;16.73;;;;;;;-7.04;69.43;100601.22;1706552;83;21571;-58
2021/12/24 08:57:46;;;;;;;31.87;16.10;;;;;;;-6.99;70.99;100595.26;1706562;83;21719;-57
2021/12/24 09:00:55;;;;;;;30.85;15.72;;;;;;;-6.94;71.62;100587.93;1675715;84;21791;-54
2021/12/24 09:04:04;;;;;;;31.82;17.85;;;;;;;-6.97;72.07;100571.64;1696078;84;21757;-53
2021/12/24 09:07:13;;;;;;;37.48;19.90;;;;;;;-6.97;72.53;100559.67;1696930;84;21289;-53
2021/12/24 09:10:23;;;;;;;35.20;18.85;;;;;;;-6.96;73.20;100548.09;1689535;83;21306;-52
2021/12/24 09:13:33;;;;;;;35.55;19.52;;;;;;;-6.95;73.39;100543.20;1688663;85;21226;-53
2021/12/24 09:16:44;;;;;;;36.55;18.67;;;;;;;-6.94;73.71;100538.72;1688275;83;21269;-53
2021/12/24 09:19:55;;;;;;;33.15;19.92;;;;;;;-6.78;73.95;100527.39;1687960;83;21221;-53
2021/12/24 09:23:02;;;;;;;38.70;20.15;;;;;;;-6.56;73.79;100520.68;1689840;83;21197;-53
2021/12/24 09:26:07;;;;;;;36.58;18.75;;;;;;;-6.35;73.33;100502.45;1689542;83;21328;-53
2021/12/24 09:29:15;;;;;;;33.18;17.90;;;;;;;-6.15;72.60;100493.09;1677038;83;21216;-53
2021/12/24 09:32:23;;;;;;;36.65;16.95;;;;;;;-5.92;71.96;100481.39;1710895;83;21253;-53
2021/12/24 09:35:30;;;;;;;34.25;18.25;;;;;;;-5.73;71.14;100473.78;1681007;84;21819;-53
2021/12/24 09:38:34;;;;;;;33.95;17.87;;;;;;;-5.56;70.41;100456.52;1692076;81;21900;-54
2021/12/24 09:41:42;;;;;;;33.53;18.17;;;;;;;-5.51;69.48;100434.50;1689946;85;22023;-54
2021/12/24 09:44:47;;;;;;;35.33;18.32;;;;;;;-5.51;68.80;100433.16;1686630;84;21182;-54
2021/12/24 09:47:53;;;;;;;33.58;18.40;;;;;;;-5.48;68.54;100421.47;1684093;83;21283;-54
2021/12/24 09:50:58;;;;;;;31.30;17.15;;;;;;;-5.41;68.37;100414.45;1692641;83;21324;-54
2021/12/24 09:54:04;;;;;;;32.40;17.67;;;;;;;-5.33;68.14;100398.06;1688281;83;21797;-54
2021/12/24 09:57:16;;;;;;;33.42;17.40;;;;;;;-5.31;67.90;100388.19;1683685;83;21220;-52
2021/12/24 10:00:27;;;;;;;33.70;19.00;;;;;;;-5.31;67.70;100386.86;1692507;83;21249;-53
2021/12/24 10:03:45;;;;;;;33.70;18.32;;;;;;;-5.18;67.85;100374.14;1675875;83;21663;-53
2021/12/24 10:07:14;;;;;;;30.20;17.32;;;;;;;-5.14;67.78;100361.52;1668399;83;21480;-54
2021/12/24 10:10:20;;;;;;;32.70;16.35;;;;;;;-5.14;67.60;100351.72;1696608;83;21308;-54
2021/12/24 10:13:45;;;;;;;32.60;16.32;;;;;;;-5.08;67.43;100339.85;1696676;84;21218;-53
2021/12/24 10:16:54;;;;;;;31.10;15.90;;;;;;;-5.04;67.14;100332.06;1680815;84;21317;-54
2021/12/24 10:20:05;;;;;;;32.13;17.07;;;;;;;-5.04;66.95;100325.39;1684229;83;21773;-55
2021/12/24 10:23:15;;;;;;;30.03;16.33;;;;;;;-5.04;67.05;100313.39;1698170;83;21919;-55
2021/12/24 10:26:34;;;;;;;28.05;15.03;;;;;;;-5.03;67.42;100304.46;1671974;84;21228;-54
2021/12/24 10:29:47;;;;;;;34.27;17.87;;;;;;;-4.93;67.77;100295.88;1681639;84;21224;-55
2021/12/24 10:32:57;;;;;;;36.70;17.50;;;;;;;-4.82;67.67;100286.83;1690942;84;21240;-56
2021/12/24 10:36:10;;;;;;;35.55;17.00;;;;;;;-4.70;67.37;100274.63;1695031;83;21291;-54
2021/12/24 10:39:16;;;;;;;34.10;16.65;;;;;;;-4.63;67.02;100266.69;1673364;84;21784;-54
2021/12/24 10:42:38;;;;;;;33.60;17.10;;;;;;;-4.58;66.75;100267.77;1686190;84;21742;-53
2021/12/24 10:45:46;;;;;;;28.47;16.20;;;;;;;-4.57;66.67;100251.16;1677409;84;21668;-53
2021/12/24 10:49:27;;;;;;;31.52;16.23;;;;;;;-4.68;66.39;100233.54;1659221;85;21185;-53
2021/12/24 10:55:36;;;;;;;30.70;15.25;;;;;;;-4.49;67.29;100219.18;1721441;82;21243;-53
2021/12/24 10:58:46;;;;;;;25.62;14.10;;;;;;;-4.35;66.98;100215.25;1716845;82;21614;-53
2021/12/24 11:01:51;;;;;;;25.92;13.48;;;;;;;-4.31;66.69;100205.64;1720977;82;21239;-53
2021/12/24 11:05:02;;;;;;;30.08;15.23;;;;;;;-4.33;66.69;100206.69;1711093;82;21267;-54
2021/12/24 11:08:11;;;;;;;23.25;13.35;;;;;;;-4.32;67.29;100209.73;1710530;83;21200;-54
2021/12/24 11:11:24;;;;;;;27.10;12.60;;;;;;;-4.27;67.55;100200.98;1738549;82;22139;-55
2021/12/24 11:14:31;;;;;;;28.57;16.48;;;;;;;-4.18;67.49;100182.62;1738706;82;21781;-55
2021/12/24 11:17:49;;;;;;;26.75;13.00;;;;;;;-4.05;67.60;100181.43;1731684;82;21200;-55
2021/12/24 11:21:03;;;;;;;22.32;12.30;;;;;;;-3.93;66.93;100177.56;1735876;82;21275;-55
2021/12/24 11:24:12;;;;;;;29.98;14.07;;;;;;;-4.05;66.61;100162.25;1738758;82;21636;-54
2021/12/24 11:27:21;;;;;;;28.27;14.95;;;;;;;-4.17;66.53;100154.94;1738316;81;21308;-55
2021/12/24 11:30:28;;;;;;;21.97;12.33;;;;;;;-4.11;66.86;100141.70;1738497;82;22017;-56
2021/12/24 11:33:44;;;;;;;32.38;14.55;;;;;;;-4.01;66.97;100126.36;1736641;82;21716;-56
2021/12/24 11:36:52;;;;;;;24.35;13.08;;;;;;;-3.95;66.74;100115.80;1697634;83;21221;-55
2021/12/24 11:39:58;;;;;;;26.90;15.68;;;;;;;-3.87;66.43;100098.33;1735052;81;21212;-55
2021/12/24 11:43:07;;;;;;;29.18;14.87;;;;;;;-3.84;66.19;100088.81;1738056;82;21161;-53
2021/12/24 11:46:15;;;;;;;27.07;14.10;;;;;;;-3.86;66.01;100083.16;1733987;82;21232;-53
2021/12/24 11:49:21;;;;;;;28.73;14.50;;;;;;;-3.86;65.88;100074.67;1737415;82;21194;-54
2021/12/24 11:52:28;;;;;;;27.85;14.33;;;;;;;-3.87;65.78;100065.41;1737600;82;21249;-54
2021/12/24 11:55:36;;;;;;;30.77;14.68;;;;;;;-3.94;65.92;100064.05;1737714;81;21988;-54
2021/12/24 11:58:50;;;;;;;29.10;15.45;;;;;;;-4.04;65.99;100063.75;1718703;82;21197;-53
2021/12/24 12:01:59;;;;;;;27.42;14.00;;;;;;;-4.10;66.24;100041.41;1727876;81;21892;-53
2021/12/24 12:05:26;;;;;;;26.23;14.53;;;;;;;-4.21;66.61;100046.54;1736226;81;21232;-54
2021/12/24 12:08:40;;;;;;;23.22;12.23;;;;;;;-4.18;66.93;100028.11;1703142;83;21817;-53
2021/12/24 12:11:48;;;;;;;26.40;12.78;;;;;;;-4.06;67.27;100030.06;1703047;82;21223;-54
2021/12/24 12:14:57;;;;;;;25.57;13.75;;;;;;;-4.00;67.24;100029.22;1702623;82;21308;-55
2021/12/24 12:18:06;;;;;;;23.77;12.23;;;;;;;-3.98;67.35;100003.23;1702554;83;21196;-53
2021/12/24 12:21:35;;;;;;;27.60;13.18;;;;;;;-3.95;67.41;99996.86;1688665;83;21311;-56
2021/12/24 12:27:52;;;;;;;20.52;10.82;;;;;;;-3.77;67.65;99980.52;1682279;85;21201;-52
2021/12/24 12:31:00;;;;;;;24.92;12.55;;;;;;;-3.70;67.67;99964.95;1687970;84;21774;-55
2021/12/24 12:34:06;;;;;;;27.17;13.80;;;;;;;-3.68;67.49;99952.36;1737933;82;21299;-54
2021/12/24 12:37:34;;;;;;;20.17;10.68;;;;;;;-3.76;67.49;99939.95;1703991;84;21782;-56
2021/12/24 12:40:43;;;;;;;23.35;11.60;;;;;;;-3.80;67.82;99926.38;1684468;84;21741;-54
2021/12/24 12:43:49;;;;;;;23.05;10.60;;;;;;;-3.84;68.00;99912.84;1666824;84;21266;-55
2021/12/24 12:46:55;;;;;;;20.97;11.35;;;;;;;-3.90;68.39;99912.73;1721098;82;21332;-54
2021/12/24 12:50:20;;;;;;;21.93;11.10;;;;;;;-3.85;68.78;99893.27;1741197;81;21339;-55
2021/12/24 12:53:41;;;;;;;17.37;9.55;;;;;;;-3.80;68.90;99891.63;1736249;82;21706;-53
2021/12/24 12:56:45;;;;;;;16.97;9.80;;;;;;;-3.83;69.18;99875.31;1737989;81;21263;-53
2021/12/24 13:00:24;;;;;;;17.17;9.93;;;;;;;-3.81;69.49;99857.84;1736684;82;21209;-54
2021/12/24 13:03:31;;;;;;;15.25;8.78;;;;;;;-3.80;69.64;99847.52;1737999;82;21264;-55
2021/12/24 13:06:51;;;;;;;17.95;10.00;;;;;;;-3.80;69.88;99855.53;1738606;81;21221;-56
2021/12/24 13:09:57;;;;;;;15.13;8.90;;;;;;;-3.82;70.49;99844.11;1735314;81;21212;-55
2021/12/24 13:13:09;;;;;;;13.48;8.03;;;;;;;-3.80;71.44;99824.79;1737739;81;21725;-52
2021/12/24 13:16:24;;;;;;;15.45;8.58;;;;;;;-3.79;71.93;99801.97;1733972;82;21896;-54
2021/12/24 13:22:54;;;;;;;16.87;8.80;;;;;;;-3.83;72.06;99799.59;1697907;82;21272;-54
2021/12/24 13:26:05;;;;;;;17.40;9.83;;;;;;;-3.91;72.42;99787.21;1717453;82;21566;-54
2021/12/24 13:29:17;;;;;;;15.98;9.08;;;;;;;-3.95;73.39;99791.05;1734100;82;21247;-54
2021/12/24 13:32:19;;;;;;;18.73;9.88;;;;;;;-3.94;73.77;99797.64;1731261;82;21487;-53
2021/12/24 13:35:51;;;;;;;16.32;9.98;;;;;;;-3.93;73.78;99793.16;1732110;81;21225;-54
2021/12/24 13:39:27;;;;;;;16.27;8.13;;;;;;;-4.01;74.05;99783.45;1734517;82;21217;-55
2021/12/24 13:42:57;;;;;;;21.15;8.50;;;;;;;-4.01;74.36;99776.27;1745976;81;21197;-56
2021/12/24 13:46:24;;;;;;;;;;;;;;;-3.98;74.38;99771.22;1706496;82;21580;-53
2021/12/24 13:50:05;;;;;;;15.75;8.73;;;;;;;-3.95;74.33;99752.30;1703267;84;20238;-54
2021/12/24 13:56:20;;;;;;;13.03;8.10;;;;;;;-3.98;74.20;99731.96;1685802;82;21216;-53
2021/12/24 13:59:32;;;;;;;15.90;8.80;;;;;;;-3.97;74.27;99727.02;1711895;82;21864;-54
2021/12/24 14:02:44;;;;;;;17.67;8.55;;;;;;;-3.94;74.84;99730.82;1701739;83;21196;-52
2021/12/24 14:06:00;;;;;;;18.35;9.55;;;;;;;-3.92;74.86;99726.70;1699816;82;21242;-53
2021/12/24 14:09:33;;;;;;;15.63;8.83;;;;;;;-3.91;74.81;99696.34;1704854;82;21522;-55
2021/12/24 14:12:36;;;;;;;16.52;9.28;;;;;;;-3.86;74.88;99687.06;1694227;82;21191;-54
2021/12/24 14:15:58;;;;;;;14.40;8.93;;;;;;;-3.80;74.91;99689.79;1702197;84;21682;-53
2021/12/24 14:19:02;;;;;;;16.05;9.15;;;;;;;-3.79;74.98;99683.00;1705156;82;21199;-54
2021/12/24 14:22:24;;;;;;;13.38;8.58;;;;;;;-3.79;75.67;99690.19;1685058;83;21224;-53
2021/12/24 14:25:32;;;;;;;15.23;8.30;;;;;;;-3.75;76.12;99701.03;1701625;84;21251;-56
2021/12/24 14:28:38;;;;;;;14.87;7.20;;;;;;;-3.72;76.11;99686.13;1686735;82;21165;-54
2021/12/24 14:32:00;;;;;;;14.58;9.23;;;;;;;-3.68;76.06;99689.81;1704302;82;21192;-54
2021/12/24 14:35:13;;;;;;;17.07;8.13;;;;;;;-3.64;76.12;99690.47;1705685;83;21231;-54
2021/12/24 14:38:18;;;;;;;14.23;7.90;;;;;;;-3.62;76.21;99686.75;1706850;82;21175;-54
2021/12/24 14:41:25;;;;;;;14.68;9.28;;;;;;;-3.56;76.31;99674.77;1706776;82;21681;-53
2021/12/24 14:44:39;;;;;;;13.05;8.80;;;;;;;-3.55;76.38;99664.46;1720801;79;21181;-54
2021/12/24 14:47:45;;;;;;;13.83;9.00;;;;;;;-3.49;76.50;99657.34;1732484;82;21196;-54
2021/12/24 14:51:10;;;;;;;13.48;8.10;;;;;;;-3.45;76.59;99648.13;1694764;84;21203;-54
2021/12/24 14:54:19;;;;;;;14.15;7.30;;;;;;;-3.38;76.72;99621.34;1681272;83;21259;-54
2021/12/24 14:57:24;;;;;;;13.38;7.78;;;;;;;-3.32;77.08;99604.86;1680921;84;21186;-54
2021/12/24 15:00:43;;;;;;;12.88;8.18;;;;;;;-3.27;77.63;99608.91;1723462;81;21621;-56
2021/12/24 15:03:56;;;;;;;13.58;8.60;;;;;;;-3.18;77.92;99602.92;1732145;82;21709;-56
2021/12/24 15:07:05;;;;;;;14.28;9.45;;;;;;;-3.18;77.76;99596.70;1717718;82;21846;-54
2021/12/24 15:10:18;;;;;;;18.32;8.83;;;;;;;-3.14;77.81;99582.16;1726745;82;21860;-54
2021/12/24 15:13:27;;;;;;;12.88;8.30;;;;;;;-3.10;77.85;99577.80;1701712;83;21732;-54
2021/12/24 15:16:37;;;;;;;12.47;7.83;;;;;;;-3.07;77.77;99572.70;1679375;84;21300;-55
2021/12/24 15:19:43;;;;;;;13.30;8.48;;;;;;;-2.99;77.85;99574.81;1681555;83;21252;-56
2021/12/24 15:22:51;;;;;;;15.63;8.93;;;;;;;-2.95;77.87;99574.98;1673945;85;21512;-57
2021/12/24 15:25:56;;;;;;;20.30;9.45;;;;;;;-2.91;77.96;99573.30;1681185;83;22084;-55
2021/12/24 15:29:03;;;;;;;13.95;7.80;;;;;;;-2.85;78.18;99574.19;1681479;84;21214;-55
2021/12/24 15:32:09;;;;;;;13.35;7.53;;;;;;;-2.73;78.31;99549.69;1681078;85;21210;-55
2021/12/24 15:35:16;;;;;;;14.70;7.80;;;;;;;-2.66;78.30;99544.27;1678630;85;21229;-55
2021/12/24 15:38:24;;;;;;;13.45;8.03;;;;;;;-2.59;78.58;99545.50;1715046;82;21219;-55
2021/12/24 15:41:31;;;;;;;12.50;7.95;;;;;;;-2.55;78.60;99534.44;1729596;82;21574;-53
2021/12/24 15:44:42;;;;;;;14.13;9.08;;;;;;;-2.51;78.72;99529.23;1735131;81;21789;-54
2021/12/24 15:47:45;;;;;;;14.63;7.97;;;;;;;-2.43;78.84;99529.52;1736448;82;21244;-54
2021/12/24 15:50:51;;;;;;;15.28;8.78;;;;;;;-2.32;78.92;99517.50;1735628;81;21811;-54
2021/12/24 15:53:56;;;;;;;15.63;9.00;;;;;;;-2.30;78.72;99512.85;1735430;82;21185;-54
2021/12/24 15:57:04;;;;;;;14.68;8.70;;;;;;;-2.26;78.87;99490.70;1710637;83;21208;-54
2021/12/24 16:00:13;;;;;;;12.28;8.58;;;;;;;-2.18;78.95;99495.86;1729103;82;21186;-54
2021/12/24 16:03:22;;;;;;;12.85;8.13;;;;;;;-2.07;79.02;99491.86;1703928;82;21764;-54
2021/12/24 16:06:27;;;;;;;16.30;9.35;;;;;;;-1.99;78.88;99466.66;1725095;81;21216;-54
2021/12/24 16:09:34;;;;;;;14.50;8.93;;;;;;;-1.99;78.77;99471.15;1737857;82;21237;-56